Smith Hunter — WDC7849 — position and weather

sailwx.info

Track history (hours):
 
Tides and Currents Weather Stations Pressure Air Temp Water Temp Dewpoint Dewpoint Depression Visibility Wind Speed Wind Dir Waves Ship Positions

Smith Hunter

Owner: Smith Marine Towing, Morgan City, LA. More information available from US FCC via Universal Licensing System and Coast Guard Vessel Documentation Center.

Last reported at 2018-Feb-24 08:00 UTC. Time now 2018-Feb-24 08:02 UTC.
Position N 34°14' W 077°57'.

Length 28 m; draft 3 m.

Type: Other ship. MMSI: 367077850.

Date/timePositionNaut miles runAvg speedWind from/ knotsBaromVisibWave heightAir tempDewpointWater temp
2018-Feb-24 08:00N 34°14' W 077°57'0 0.0
2018-Feb-24 07:30N 34°14' W 077°57'0 0.0
2018-Feb-24 07:00N 34°14' W 077°57'0 0.0
2018-Feb-24 06:30N 34°14' W 077°57'0 0.0
2018-Feb-24 06:00N 34°14' W 077°57'0 0.0
2018-Feb-24 05:30N 34°14' W 077°57'0 0.0
2018-Feb-24 05:00N 34°14' W 077°57'0 0.0
2018-Feb-24 04:30N 34°14' W 077°57'0 0.0
2018-Feb-24 04:00N 34°14' W 077°57'0 0.0
2018-Feb-24 03:30N 34°14' W 077°57'0 0.0
2018-Feb-24 03:00N 34°14' W 077°57'0 0.0
2018-Feb-24 02:30N 34°14' W 077°57'0 0.0
2018-Feb-24 02:00N 34°14' W 077°57'0 0.0
2018-Feb-24 01:30N 34°14' W 077°57'0 0.0
2018-Feb-24 01:00N 34°14' W 077°57'0 0.0
2018-Feb-24 00:30N 34°14' W 077°57'0 0.0
2018-Feb-24 00:00N 34°14' W 077°57'0 0.0
2018-Feb-23 23:30N 34°14' W 077°57'0 0.0
2018-Feb-23 23:00N 34°14' W 077°57'0 0.0
2018-Feb-23 22:30N 34°14' W 077°57'0 0.0
2018-Feb-23 22:00N 34°14' W 077°57'0 0.0
2018-Feb-23 21:30N 34°14' W 077°57'0 0.0
2018-Feb-23 21:00N 34°14' W 077°57'  
2018-Feb-21 10:03N 34°34' W 077°02'1 2.2
2018-Feb-21 09:43N 34°34' W 077°01'1 2.1
2018-Feb-21 09:24N 34°35' W 077°00'1 2.1
2018-Feb-21 08:59N 34°35' W 076°59'1 2.0
2018-Feb-21 08:29N 34°35' W 076°58'2 2.0
2018-Feb-21 07:20N 34°35' W 076°55'1 2.0
2018-Feb-21 06:56N 34°35' W 076°54'1 1.9
2018-Feb-21 06:30N 34°35' W 076°53'1 1.8
2018-Feb-21 06:00N 34°35' W 076°52'1 1.8
2018-Feb-21 05:30N 34°35' W 076°51'1 1.8
2018-Feb-21 05:00N 34°35' W 076°50'1 1.9
2018-Feb-21 04:30N 34°35' W 076°49'1 2.0
2018-Feb-21 04:00N 34°34' W 076°48'1 2.1
2018-Feb-21 03:30N 34°34' W 076°47'1 2.1
2018-Feb-21 03:01N 34°34' W 076°45'1 1.3
2018-Feb-21 02:30N 34°34' W 076°45'1 2.2
2018-Feb-21 01:58N 34°35' W 076°46'2 3.3
2018-Feb-21 01:30N 34°33' W 076°45'2 4.8
2018-Feb-21 01:01N 34°32' W 076°42'2 4.9
2018-Feb-21 00:30N 34°30' W 076°40'2 4.7
2018-Feb-21 00:00N 34°29' W 076°38'2 4.4
2018-Feb-20 23:30N 34°28' W 076°36'2 4.4
2018-Feb-20 22:59N 34°26' W 076°34'3 4.1
2018-Feb-20 22:12N 34°25' W 076°30'6 3.9
2018-Feb-20 20:47N 34°27' W 076°24'1 4.4
2018-Feb-20 20:29N 34°29' W 076°23'2 4.4
2018-Feb-20 20:00N 34°31' W 076°22'  
2018-Feb-17 20:26N 34°29' W 076°31'3 8.0
2018-Feb-17 20:01N 34°32' W 076°34'4 8.6
2018-Feb-17 19:30N 34°35' W 076°37'4 8.9
2018-Feb-17 19:00N 34°39' W 076°40'4 8.5
2018-Feb-17 18:30N 34°43' W 076°42'0 0.3
2018-Feb-17 18:01N 34°43' W 076°42'0 0.0
2018-Feb-17 17:31N 34°43' W 076°42'0 0.0
2018-Feb-17 17:01N 34°43' W 076°42'0 0.0
2018-Feb-17 16:31N 34°43' W 076°42'0 0.0
2018-Feb-17 16:00N 34°43' W 076°42'0 0.0
2018-Feb-17 15:31N 34°43' W 076°42'0 0.0
2018-Feb-17 15:00N 34°43' W 076°42'0 0.0
2018-Feb-17 14:30N 34°43' W 076°42'0 0.0
2018-Feb-17 14:01N 34°43' W 076°42'0 0.0
2018-Feb-17 13:30N 34°43' W 076°42'0 0.0
2018-Feb-17 13:00N 34°43' W 076°42'0 0.0
2018-Feb-17 12:30N 34°43' W 076°42'0 0.0
2018-Feb-17 12:00N 34°43' W 076°42'0 0.0
2018-Feb-17 11:30N 34°43' W 076°42'0 0.0
2018-Feb-17 11:01N 34°43' W 076°42'0 0.0
2018-Feb-17 10:30N 34°43' W 076°42'0 0.0
2018-Feb-17 10:01N 34°43' W 076°42'0 0.0
2018-Feb-17 09:30N 34°43' W 076°42'0 0.0
2018-Feb-17 09:00N 34°43' W 076°42'0 0.0
2018-Feb-17 08:30N 34°43' W 076°42'0 0.0
2018-Feb-17 08:01N 34°43' W 076°42'0 0.0
2018-Feb-17 07:30N 34°43' W 076°42'0 0.0
2018-Feb-17 07:00N 34°43' W 076°42'0 0.0
2018-Feb-17 06:31N 34°43' W 076°42'0 0.0
2018-Feb-17 06:00N 34°43' W 076°42'0 0.0
2018-Feb-17 05:31N 34°43' W 076°42'0 0.0
2018-Feb-17 05:00N 34°43' W 076°42'0 0.0
2018-Feb-17 04:31N 34°43' W 076°42'0 0.0
2018-Feb-17 04:00N 34°43' W 076°42'0 0.0
2018-Feb-17 03:31N 34°43' W 076°42'0 0.0
2018-Feb-17 03:01N 34°43' W 076°42'0 0.0
2018-Feb-17 02:31N 34°43' W 076°42'0 0.0
2018-Feb-17 02:01N 34°43' W 076°42'0 0.0
2018-Feb-17 01:30N 34°43' W 076°42'0 0.0
2018-Feb-17 01:01N 34°43' W 076°42'0 0.0
2018-Feb-17 00:30N 34°43' W 076°42'0 0.0
2018-Feb-17 00:00N 34°43' W 076°42'0 0.0
2018-Feb-16 23:30N 34°43' W 076°42'0 0.0
2018-Feb-16 23:01N 34°43' W 076°42'0 0.0
2018-Feb-16 22:30N 34°43' W 076°42'0 0.0
2018-Feb-16 22:01N 34°43' W 076°42'0 0.0
2018-Feb-16 21:30N 34°43' W 076°42'0 0.0
2018-Feb-16 21:00N 34°43' W 076°42'0 0.0
2018-Feb-16 20:31N 34°43' W 076°42'0 0.0
2018-Feb-16 20:01N 34°43' W 076°42'0 0.0
2018-Feb-16 19:30N 34°43' W 076°42'0 0.0
2018-Feb-16 19:01N 34°43' W 076°42'0 0.0
2018-Feb-16 18:30N 34°43' W 076°42'0 0.0
2018-Feb-16 18:01N 34°43' W 076°42'0 0.0
2018-Feb-16 17:30N 34°43' W 076°42'0 0.0
2018-Feb-16 17:00N 34°43' W 076°42'0 0.0
2018-Feb-16 16:30N 34°43' W 076°42'0 0.0
2018-Feb-16 16:00N 34°43' W 076°42'0 0.0
2018-Feb-16 15:30N 34°43' W 076°42'0 0.0
2018-Feb-16 15:01N 34°43' W 076°42'0 0.0
2018-Feb-16 14:30N 34°43' W 076°42'0 0.0
2018-Feb-16 14:01N 34°43' W 076°42'0 0.0
2018-Feb-16 13:30N 34°43' W 076°42'0 0.0
2018-Feb-16 13:01N 34°43' W 076°42'0 0.0
2018-Feb-16 12:31N 34°43' W 076°42'0 0.0
2018-Feb-16 12:01N 34°43' W 076°42'0 0.0
2018-Feb-16 11:31N 34°43' W 076°42'0 0.0
2018-Feb-16 11:01N 34°43' W 076°42'0 0.0
2018-Feb-16 10:30N 34°43' W 076°42'0 0.0
2018-Feb-16 10:00N 34°43' W 076°42'0 0.0
2018-Feb-16 09:30N 34°43' W 076°42'0 0.0
2018-Feb-16 09:00N 34°43' W 076°42'0 0.0
2018-Feb-16 08:31N 34°43' W 076°42'0 0.0
2018-Feb-16 08:00N 34°43' W 076°42'0 0.0
2018-Feb-16 07:31N 34°43' W 076°42'0 0.0
2018-Feb-16 07:01N 34°43' W 076°42'0 0.0
2018-Feb-16 06:31N 34°43' W 076°42'0 0.0
2018-Feb-16 06:00N 34°43' W 076°42'0 0.0
2018-Feb-16 05:31N 34°43' W 076°42'0 0.0
2018-Feb-16 05:01N 34°43' W 076°42'0 0.0
2018-Feb-16 04:30N 34°43' W 076°42'0 0.0
2018-Feb-16 04:00N 34°43' W 076°42'0 0.0
2018-Feb-16 03:31N 34°43' W 076°42'0 0.0
2018-Feb-16 03:00N 34°43' W 076°42'0 0.0
2018-Feb-16 02:31N 34°43' W 076°42'0 0.0
2018-Feb-16 02:00N 34°43' W 076°42'0 0.0
2018-Feb-16 01:30N 34°43' W 076°42'0 0.0
2018-Feb-16 01:00N 34°43' W 076°42'0 0.0
2018-Feb-16 00:30N 34°43' W 076°42'0 0.0
2018-Feb-16 00:01N 34°43' W 076°42'0 0.0
2018-Feb-15 23:30N 34°43' W 076°42'0 0.0
2018-Feb-15 23:00N 34°43' W 076°42'0 0.0
2018-Feb-15 22:31N 34°43' W 076°42'0 0.0
2018-Feb-15 22:00N 34°43' W 076°42'0 0.0
2018-Feb-15 21:30N 34°43' W 076°42'0 0.0
2018-Feb-15 21:00N 34°43' W 076°42'0 0.0
2018-Feb-15 20:31N 34°43' W 076°42'0 0.0
2018-Feb-15 20:00N 34°43' W 076°42'0 0.0
2018-Feb-15 19:31N 34°43' W 076°42'0 0.0
2018-Feb-15 19:01N 34°43' W 076°42'0 0.0
2018-Feb-15 18:31N 34°43' W 076°42'0 0.0
2018-Feb-15 18:01N 34°43' W 076°42'0 0.0
2018-Feb-15 17:30N 34°43' W 076°42'0 0.0
2018-Feb-15 17:01N 34°43' W 076°42'0 0.0
2018-Feb-15 16:31N 34°43' W 076°42'0 0.0
2018-Feb-15 16:00N 34°43' W 076°42'0 0.0
2018-Feb-15 15:31N 34°43' W 076°42'0 0.0
2018-Feb-15 15:01N 34°43' W 076°42'0 0.0
2018-Feb-15 14:30N 34°43' W 076°42'0 0.0
2018-Feb-15 14:00N 34°43' W 076°42'0 0.0
2018-Feb-15 13:30N 34°43' W 076°42'0 0.0
2018-Feb-15 13:00N 34°43' W 076°42'0 0.0
2018-Feb-15 12:31N 34°43' W 076°42'0 0.0
2018-Feb-15 12:00N 34°43' W 076°42'0 0.0
2018-Feb-15 11:30N 34°43' W 076°42'0 0.0
2018-Feb-15 11:01N 34°43' W 076°42'0 0.0
2018-Feb-15 10:31N 34°43' W 076°42'0 0.0
2018-Feb-15 10:01N 34°43' W 076°42'0 0.0
2018-Feb-15 09:31N 34°43' W 076°42'0 0.0
2018-Feb-15 09:00N 34°43' W 076°42'0 0.0
2018-Feb-15 08:30N 34°43' W 076°42'0 0.0
2018-Feb-15 08:01N 34°43' W 076°42'0 0.0
2018-Feb-15 07:31N 34°43' W 076°42'0 0.0
2018-Feb-15 07:01N 34°43' W 076°42'0 0.0
2018-Feb-15 06:31N 34°43' W 076°42'0 0.0
2018-Feb-15 06:01N 34°43' W 076°42'0 0.0
2018-Feb-15 05:29N 34°43' W 076°42'0 0.0
2018-Feb-15 05:01N 34°43' W 076°42'0 0.0
2018-Feb-15 04:31N 34°43' W 076°42'0 0.0
2018-Feb-15 04:00N 34°43' W 076°42'0 0.0
2018-Feb-15 03:30N 34°43' W 076°42'0 0.0
2018-Feb-15 03:01N 34°43' W 076°42'0 0.0
2018-Feb-15 02:31N 34°43' W 076°42'0 0.0
2018-Feb-15 02:00N 34°43' W 076°42'0 0.0
2018-Feb-15 01:30N 34°43' W 076°42'0 0.0
2018-Feb-15 01:01N 34°43' W 076°42'0 0.0
2018-Feb-15 00:30N 34°43' W 076°42'0 0.0
2018-Feb-15 00:00N 34°43' W 076°42'0 0.0
2018-Feb-14 23:31N 34°43' W 076°42'0 0.0
2018-Feb-14 23:00N 34°43' W 076°42'0 0.0
2018-Feb-14 22:30N 34°43' W 076°42'0 0.0
2018-Feb-14 22:00N 34°43' W 076°42'0 0.0
2018-Feb-14 21:31N 34°43' W 076°42'0 0.0
2018-Feb-14 20:59N 34°43' W 076°42'0 0.0
2018-Feb-14 20:31N 34°43' W 076°42'0 0.0
2018-Feb-14 20:01N 34°43' W 076°42'0 0.0
2018-Feb-14 19:30N 34°43' W 076°42'0 0.0
2018-Feb-14 19:00N 34°43' W 076°42'0 0.0
2018-Feb-14 18:30N 34°43' W 076°42'0 0.0
2018-Feb-14 18:01N 34°43' W 076°42'0 0.0
2018-Feb-14 17:30N 34°43' W 076°42'0 0.0
2018-Feb-14 17:00N 34°43' W 076°42'0 0.0
2018-Feb-14 16:30N 34°43' W 076°42'0 0.0
2018-Feb-14 16:01N 34°43' W 076°42'0 0.0
2018-Feb-14 15:31N 34°43' W 076°42'0 0.0
2018-Feb-14 15:00N 34°43' W 076°42'0 0.0
2018-Feb-14 14:31N 34°43' W 076°42'0 0.0
2018-Feb-14 14:01N 34°43' W 076°42'0 0.0
2018-Feb-14 13:29N 34°43' W 076°42'0 0.0
2018-Feb-14 13:00N 34°43' W 076°42'0 0.0
2018-Feb-14 12:31N 34°43' W 076°42'0 0.0
2018-Feb-14 12:01N 34°43' W 076°42'0 0.0
2018-Feb-14 11:30N 34°43' W 076°42'0 0.0
2018-Feb-14 11:01N 34°43' W 076°42'0 0.0
2018-Feb-14 10:31N 34°43' W 076°42'0 0.0
2018-Feb-14 10:00N 34°43' W 076°42'0 0.0
2018-Feb-14 09:30N 34°43' W 076°42'0 0.0
2018-Feb-14 08:59N 34°43' W 076°42'0 0.0
2018-Feb-14 08:31N 34°43' W 076°42'0 0.0
2018-Feb-14 08:01N 34°43' W 076°42'  
Track history (hours):
 
Tides and Currents Weather Stations Pressure Air Temp Water Temp Dewpoint Dewpoint Depression Visibility Wind Speed Wind Dir Waves Ship Positions

Smith Hunter

Owner: Smith Marine Towing, Morgan City, LA. More information available from US FCC via Universal Licensing System and Coast Guard Vessel Documentation Center.

Last reported at 2018-Feb-24 08:00 UTC. Time now 2018-Feb-24 08:02 UTC.
Position N 34°14' W 077°57'.

Length 28 m; draft 3 m.

Type: Other ship. MMSI: 367077850.

Date/timePositionNaut miles runAvg speedWind from/ knotsBaromVisibWave heightAir tempDewpointWater temp
2018-Feb-24 08:00N 34°14' W 077°57'0 0.0
2018-Feb-24 07:30N 34°14' W 077°57'0 0.0
2018-Feb-24 07:00N 34°14' W 077°57'0 0.0
2018-Feb-24 06:30N 34°14' W 077°57'0 0.0
2018-Feb-24 06:00N 34°14' W 077°57'0 0.0
2018-Feb-24 05:30N 34°14' W 077°57'0 0.0
2018-Feb-24 05:00N 34°14' W 077°57'0 0.0
2018-Feb-24 04:30N 34°14' W 077°57'0 0.0
2018-Feb-24 04:00N 34°14' W 077°57'0 0.0
2018-Feb-24 03:30N 34°14' W 077°57'0 0.0
2018-Feb-24 03:00N 34°14' W 077°57'0 0.0
2018-Feb-24 02:30N 34°14' W 077°57'0 0.0
2018-Feb-24 02:00N 34°14' W 077°57'0 0.0
2018-Feb-24 01:30N 34°14' W 077°57'0 0.0
2018-Feb-24 01:00N 34°14' W 077°57'0 0.0
2018-Feb-24 00:30N 34°14' W 077°57'0 0.0
2018-Feb-24 00:00N 34°14' W 077°57'0 0.0
2018-Feb-23 23:30N 34°14' W 077°57'0 0.0
2018-Feb-23 23:00N 34°14' W 077°57'0 0.0
2018-Feb-23 22:30N 34°14' W 077°57'0 0.0
2018-Feb-23 22:00N 34°14' W 077°57'0 0.0
2018-Feb-23 21:30N 34°14' W 077°57'0 0.0
2018-Feb-23 21:00N 34°14' W 077°57'  
2018-Feb-21 10:03N 34°34' W 077°02'1 2.2
2018-Feb-21 09:43N 34°34' W 077°01'1 2.1
2018-Feb-21 09:24N 34°35' W 077°00'1 2.1
2018-Feb-21 08:59N 34°35' W 076°59'1 2.0
2018-Feb-21 08:29N 34°35' W 076°58'2 2.0
2018-Feb-21 07:20N 34°35' W 076°55'1 2.0
2018-Feb-21 06:56N 34°35' W 076°54'1 1.9
2018-Feb-21 06:30N 34°35' W 076°53'1 1.8
2018-Feb-21 06:00N 34°35' W 076°52'1 1.8
2018-Feb-21 05:30N 34°35' W 076°51'1 1.8
2018-Feb-21 05:00N 34°35' W 076°50'1 1.9
2018-Feb-21 04:30N 34°35' W 076°49'1 2.0
2018-Feb-21 04:00N 34°34' W 076°48'1 2.1
2018-Feb-21 03:30N 34°34' W 076°47'1 2.1
2018-Feb-21 03:01N 34°34' W 076°45'1 1.3
2018-Feb-21 02:30N 34°34' W 076°45'1 2.2
2018-Feb-21 01:58N 34°35' W 076°46'2 3.3
2018-Feb-21 01:30N 34°33' W 076°45'2 4.8
2018-Feb-21 01:01N 34°32' W 076°42'2 4.9
2018-Feb-21 00:30N 34°30' W 076°40'2 4.7
2018-Feb-21 00:00N 34°29' W 076°38'2 4.4
2018-Feb-20 23:30N 34°28' W 076°36'2 4.4
2018-Feb-20 22:59N 34°26' W 076°34'3 4.1
2018-Feb-20 22:12N 34°25' W 076°30'6 3.9
2018-Feb-20 20:47N 34°27' W 076°24'1 4.4
2018-Feb-20 20:29N 34°29' W 076°23'2 4.4
2018-Feb-20 20:00N 34°31' W 076°22'  
2018-Feb-17 20:26N 34°29' W 076°31'3 8.0
2018-Feb-17 20:01N 34°32' W 076°34'4 8.6
2018-Feb-17 19:30N 34°35' W 076°37'4 8.9
2018-Feb-17 19:00N 34°39' W 076°40'4 8.5
2018-Feb-17 18:30N 34°43' W 076°42'0 0.3
2018-Feb-17 18:01N 34°43' W 076°42'0 0.0
2018-Feb-17 17:31N 34°43' W 076°42'0 0.0
2018-Feb-17 17:01N 34°43' W 076°42'0 0.0
2018-Feb-17 16:31N 34°43' W 076°42'0 0.0
2018-Feb-17 16:00N 34°43' W 076°42'0 0.0
2018-Feb-17 15:31N 34°43' W 076°42'0 0.0
2018-Feb-17 15:00N 34°43' W 076°42'0 0.0
2018-Feb-17 14:30N 34°43' W 076°42'0 0.0
2018-Feb-17 14:01N 34°43' W 076°42'0 0.0
2018-Feb-17 13:30N 34°43' W 076°42'0 0.0
2018-Feb-17 13:00N 34°43' W 076°42'0 0.0
2018-Feb-17 12:30N 34°43' W 076°42'0 0.0
2018-Feb-17 12:00N 34°43' W 076°42'0 0.0
2018-Feb-17 11:30N 34°43' W 076°42'0 0.0
2018-Feb-17 11:01N 34°43' W 076°42'0 0.0
2018-Feb-17 10:30N 34°43' W 076°42'0 0.0
2018-Feb-17 10:01N 34°43' W 076°42'0 0.0
2018-Feb-17 09:30N 34°43' W 076°42'0 0.0
2018-Feb-17 09:00N 34°43' W 076°42'0 0.0
2018-Feb-17 08:30N 34°43' W 076°42'0 0.0
2018-Feb-17 08:01N 34°43' W 076°42'0 0.0
2018-Feb-17 07:30N 34°43' W 076°42'0 0.0
2018-Feb-17 07:00N 34°43' W 076°42'0 0.0
2018-Feb-17 06:31N 34°43' W 076°42'0 0.0
2018-Feb-17 06:00N 34°43' W 076°42'0 0.0
2018-Feb-17 05:31N 34°43' W 076°42'0 0.0
2018-Feb-17 05:00N 34°43' W 076°42'0 0.0
2018-Feb-17 04:31N 34°43' W 076°42'0 0.0
2018-Feb-17 04:00N 34°43' W 076°42'0 0.0
2018-Feb-17 03:31N 34°43' W 076°42'0 0.0
2018-Feb-17 03:01N 34°43' W 076°42'0 0.0
2018-Feb-17 02:31N 34°43' W 076°42'0 0.0
2018-Feb-17 02:01N 34°43' W 076°42'0 0.0
2018-Feb-17 01:30N 34°43' W 076°42'0 0.0
2018-Feb-17 01:01N 34°43' W 076°42'0 0.0
2018-Feb-17 00:30N 34°43' W 076°42'0 0.0
2018-Feb-17 00:00N 34°43' W 076°42'0 0.0
2018-Feb-16 23:30N 34°43' W 076°42'0 0.0
2018-Feb-16 23:01N 34°43' W 076°42'0 0.0
2018-Feb-16 22:30N 34°43' W 076°42'0 0.0
2018-Feb-16 22:01N 34°43' W 076°42'0 0.0
2018-Feb-16 21:30N 34°43' W 076°42'0 0.0
2018-Feb-16 21:00N 34°43' W 076°42'0 0.0
2018-Feb-16 20:31N 34°43' W 076°42'0 0.0
2018-Feb-16 20:01N 34°43' W 076°42'0 0.0
2018-Feb-16 19:30N 34°43' W 076°42'0 0.0
2018-Feb-16 19:01N 34°43' W 076°42'0 0.0
2018-Feb-16 18:30N 34°43' W 076°42'0 0.0
2018-Feb-16 18:01N 34°43' W 076°42'0 0.0
2018-Feb-16 17:30N 34°43' W 076°42'0 0.0
2018-Feb-16 17:00N 34°43' W 076°42'0 0.0
2018-Feb-16 16:30N 34°43' W 076°42'0 0.0
2018-Feb-16 16:00N 34°43' W 076°42'0 0.0
2018-Feb-16 15:30N 34°43' W 076°42'0 0.0
2018-Feb-16 15:01N 34°43' W 076°42'0 0.0
2018-Feb-16 14:30N 34°43' W 076°42'0 0.0
2018-Feb-16 14:01N 34°43' W 076°42'0 0.0
2018-Feb-16 13:30N 34°43' W 076°42'0 0.0
2018-Feb-16 13:01N 34°43' W 076°42'0 0.0
2018-Feb-16 12:31N 34°43' W 076°42'0 0.0
2018-Feb-16 12:01N 34°43' W 076°42'0 0.0
2018-Feb-16 11:31N 34°43' W 076°42'0 0.0
2018-Feb-16 11:01N 34°43' W 076°42'0 0.0
2018-Feb-16 10:30N 34°43' W 076°42'0 0.0
2018-Feb-16 10:00N 34°43' W 076°42'0 0.0
2018-Feb-16 09:30N 34°43' W 076°42'0 0.0
2018-Feb-16 09:00N 34°43' W 076°42'0 0.0
2018-Feb-16 08:31N 34°43' W 076°42'0 0.0
2018-Feb-16 08:00N 34°43' W 076°42'0 0.0
2018-Feb-16 07:31N 34°43' W 076°42'0 0.0
2018-Feb-16 07:01N 34°43' W 076°42'0 0.0
2018-Feb-16 06:31N 34°43' W 076°42'0 0.0
2018-Feb-16 06:00N 34°43' W 076°42'0 0.0
2018-Feb-16 05:31N 34°43' W 076°42'0 0.0
2018-Feb-16 05:01N 34°43' W 076°42'0 0.0
2018-Feb-16 04:30N 34°43' W 076°42'0 0.0
2018-Feb-16 04:00N 34°43' W 076°42'0 0.0
2018-Feb-16 03:31N 34°43' W 076°42'0 0.0
2018-Feb-16 03:00N 34°43' W 076°42'0 0.0
2018-Feb-16 02:31N 34°43' W 076°42'0 0.0
2018-Feb-16 02:00N 34°43' W 076°42'0 0.0
2018-Feb-16 01:30N 34°43' W 076°42'0 0.0
2018-Feb-16 01:00N 34°43' W 076°42'0 0.0
2018-Feb-16 00:30N 34°43' W 076°42'0 0.0
2018-Feb-16 00:01N 34°43' W 076°42'0 0.0
2018-Feb-15 23:30N 34°43' W 076°42'0 0.0
2018-Feb-15 23:00N 34°43' W 076°42'0 0.0
2018-Feb-15 22:31N 34°43' W 076°42'0 0.0
2018-Feb-15 22:00N 34°43' W 076°42'0 0.0
2018-Feb-15 21:30N 34°43' W 076°42'0 0.0
2018-Feb-15 21:00N 34°43' W 076°42'0 0.0
2018-Feb-15 20:31N 34°43' W 076°42'0 0.0
2018-Feb-15 20:00N 34°43' W 076°42'0 0.0
2018-Feb-15 19:31N 34°43' W 076°42'0 0.0
2018-Feb-15 19:01N 34°43' W 076°42'0 0.0
2018-Feb-15 18:31N 34°43' W 076°42'0 0.0
2018-Feb-15 18:01N 34°43' W 076°42'0 0.0
2018-Feb-15 17:30N 34°43' W 076°42'0 0.0
2018-Feb-15 17:01N 34°43' W 076°42'0 0.0
2018-Feb-15 16:31N 34°43' W 076°42'0 0.0
2018-Feb-15 16:00N 34°43' W 076°42'0 0.0
2018-Feb-15 15:31N 34°43' W 076°42'0 0.0
2018-Feb-15 15:01N 34°43' W 076°42'0 0.0
2018-Feb-15 14:30N 34°43' W 076°42'0 0.0
2018-Feb-15 14:00N 34°43' W 076°42'0 0.0
2018-Feb-15 13:30N 34°43' W 076°42'0 0.0
2018-Feb-15 13:00N 34°43' W 076°42'0 0.0
2018-Feb-15 12:31N 34°43' W 076°42'0 0.0
2018-Feb-15 12:00N 34°43' W 076°42'0 0.0
2018-Feb-15 11:30N 34°43' W 076°42'0 0.0
2018-Feb-15 11:01N 34°43' W 076°42'0 0.0
2018-Feb-15 10:31N 34°43' W 076°42'0 0.0
2018-Feb-15 10:01N 34°43' W 076°42'0 0.0
2018-Feb-15 09:31N 34°43' W 076°42'0 0.0
2018-Feb-15 09:00N 34°43' W 076°42'0 0.0
2018-Feb-15 08:30N 34°43' W 076°42'0 0.0
2018-Feb-15 08:01N 34°43' W 076°42'0 0.0
2018-Feb-15 07:31N 34°43' W 076°42'0 0.0
2018-Feb-15 07:01N 34°43' W 076°42'0 0.0
2018-Feb-15 06:31N 34°43' W 076°42'0 0.0
2018-Feb-15 06:01N 34°43' W 076°42'0 0.0
2018-Feb-15 05:29N 34°43' W 076°42'0 0.0
2018-Feb-15 05:01N 34°43' W 076°42'0 0.0
2018-Feb-15 04:31N 34°43' W 076°42'0 0.0
2018-Feb-15 04:00N 34°43' W 076°42'0 0.0
2018-Feb-15 03:30N 34°43' W 076°42'0 0.0
2018-Feb-15 03:01N 34°43' W 076°42'0 0.0
2018-Feb-15 02:31N 34°43' W 076°42'0 0.0
2018-Feb-15 02:00N 34°43' W 076°42'0 0.0
2018-Feb-15 01:30N 34°43' W 076°42'0 0.0
2018-Feb-15 01:01N 34°43' W 076°42'0 0.0
2018-Feb-15 00:30N 34°43' W 076°42'0 0.0
2018-Feb-15 00:00N 34°43' W 076°42'0 0.0
2018-Feb-14 23:31N 34°43' W 076°42'0 0.0
2018-Feb-14 23:00N 34°43' W 076°42'0 0.0
2018-Feb-14 22:30N 34°43' W 076°42'0 0.0
2018-Feb-14 22:00N 34°43' W 076°42'0 0.0
2018-Feb-14 21:31N 34°43' W 076°42'0 0.0
2018-Feb-14 20:59N 34°43' W 076°42'0 0.0
2018-Feb-14 20:31N 34°43' W 076°42'0 0.0
2018-Feb-14 20:01N 34°43' W 076°42'0 0.0
2018-Feb-14 19:30N 34°43' W 076°42'0 0.0
2018-Feb-14 19:00N 34°43' W 076°42'0 0.0
2018-Feb-14 18:30N 34°43' W 076°42'0 0.0
2018-Feb-14 18:01N 34°43' W 076°42'0 0.0
2018-Feb-14 17:30N 34°43' W 076°42'0 0.0
2018-Feb-14 17:00N 34°43' W 076°42'0 0.0
2018-Feb-14 16:30N 34°43' W 076°42'0 0.0
2018-Feb-14 16:01N 34°43' W 076°42'0 0.0
2018-Feb-14 15:31N 34°43' W 076°42'0 0.0
2018-Feb-14 15:00N 34°43' W 076°42'0 0.0
2018-Feb-14 14:31N 34°43' W 076°42'0 0.0
2018-Feb-14 14:01N 34°43' W 076°42'0 0.0
2018-Feb-14 13:29N 34°43' W 076°42'0 0.0
2018-Feb-14 13:00N 34°43' W 076°42'0 0.0
2018-Feb-14 12:31N 34°43' W 076°42'0 0.0
2018-Feb-14 12:01N 34°43' W 076°42'0 0.0
2018-Feb-14 11:30N 34°43' W 076°42'0 0.0
2018-Feb-14 11:01N 34°43' W 076°42'0 0.0
2018-Feb-14 10:31N 34°43' W 076°42'0 0.0
2018-Feb-14 10:00N 34°43' W 076°42'0 0.0
2018-Feb-14 09:30N 34°43' W 076°42'0 0.0
2018-Feb-14 08:59N 34°43' W 076°42'0 0.0
2018-Feb-14 08:31N 34°43' W 076°42'0 0.0
2018-Feb-14 08:01N 34°43' W 076°42'  

Dump ship's entire track history